sensor_id;sensor_type;location;lat;lon;timestamp;P1;durP1;ratioP1;P2;durP2;ratioP2
16115;SDS011;8162;47.104;15.432;2023-04-15T00:02:15;8.20;;;6.20;;
16115;SDS011;8162;47.104;15.432;2023-04-15T00:05:17;6.93;;;6.23;;
16115;SDS011;8162;47.104;15.432;2023-04-15T00:08:18;8.57;;;6.47;;
16115;SDS011;8162;47.104;15.432;2023-04-15T00:11:19;12.97;;;7.17;;
16115;SDS011;8162;47.104;15.432;2023-04-15T00:14:20;6.77;;;5.77;;
16115;SDS011;8162;47.104;15.432;2023-04-15T00:17:21;11.80;;;7.57;;
16115;SDS011;8162;47.104;15.432;2023-04-15T00:20:21;10.30;;;7.17;;
16115;SDS011;8162;47.104;15.432;2023-04-15T00:23:22;8.87;;;6.17;;
16115;SDS011;8162;47.104;15.432;2023-04-15T00:26:23;14.57;;;7.90;;
16115;SDS011;8162;47.104;15.432;2023-04-15T00:29:24;9.23;;;6.27;;
16115;SDS011;8162;47.104;15.432;2023-04-15T00:32:25;7.03;;;6.07;;
16115;SDS011;8162;47.104;15.432;2023-04-15T00:35:26;7.57;;;5.03;;
16115;SDS011;8162;47.104;15.432;2023-04-15T00:38:27;10.40;;;8.13;;
16115;SDS011;8162;47.104;15.432;2023-04-15T00:41:27;7.57;;;6.00;;
16115;SDS011;8162;47.104;15.432;2023-04-15T00:44:28;10.93;;;7.93;;
16115;SDS011;8162;47.104;15.432;2023-04-15T00:47:29;10.10;;;7.30;;
16115;SDS011;8162;47.104;15.432;2023-04-15T00:50:31;7.20;;;5.37;;
16115;SDS011;8162;47.104;15.432;2023-04-15T00:53:32;8.37;;;6.27;;
16115;SDS011;8162;47.104;15.432;2023-04-15T00:56:34;7.13;;;6.10;;
16115;SDS011;8162;47.104;15.432;2023-04-15T00:59:35;10.30;;;6.37;;
16115;SDS011;8162;47.104;15.432;2023-04-15T01:02:36;5.30;;;4.80;;
16115;SDS011;8162;47.104;15.432;2023-04-15T01:05:38;7.27;;;5.67;;
16115;SDS011;8162;47.104;15.432;2023-04-15T01:08:38;6.93;;;5.53;;
16115;SDS011;8162;47.104;15.432;2023-04-15T01:11:40;5.87;;;4.90;;
16115;SDS011;8162;47.104;15.432;2023-04-15T01:14:41;4.37;;;3.97;;
16115;SDS011;8162;47.104;15.432;2023-04-15T01:17:41;4.43;;;4.03;;
16115;SDS011;8162;47.104;15.432;2023-04-15T01:20:42;7.70;;;5.63;;
16115;SDS011;8162;47.104;15.432;2023-04-15T01:23:44;7.27;;;5.80;;
16115;SDS011;8162;47.104;15.432;2023-04-15T01:26:47;4.50;;;3.67;;
16115;SDS011;8162;47.104;15.432;2023-04-15T01:29:49;7.63;;;4.57;;
16115;SDS011;8162;47.104;15.432;2023-04-15T01:32:50;6.40;;;4.00;;
16115;SDS011;8162;47.104;15.432;2023-04-15T01:35:51;5.67;;;3.73;;
16115;SDS011;8162;47.104;15.432;2023-04-15T01:38:52;4.93;;;3.20;;
16115;SDS011;8162;47.104;15.432;2023-04-15T01:41:54;5.27;;;4.23;;
16115;SDS011;8162;47.104;15.432;2023-04-15T01:44:54;6.43;;;5.10;;
16115;SDS011;8162;47.104;15.432;2023-04-15T01:47:56;5.40;;;4.27;;
16115;SDS011;8162;47.104;15.432;2023-04-15T01:50:57;4.77;;;3.43;;
16115;SDS011;8162;47.104;15.432;2023-04-15T01:53:57;4.73;;;3.57;;
16115;SDS011;8162;47.104;15.432;2023-04-15T01:56:58;5.97;;;3.70;;
16115;SDS011;8162;47.104;15.432;2023-04-15T01:59:59;4.70;;;3.77;;
16115;SDS011;8162;47.104;15.432;2023-04-15T02:03:00;6.77;;;4.20;;
16115;SDS011;8162;47.104;15.432;2023-04-15T02:06:00;3.43;;;3.13;;
16115;SDS011;8162;47.104;15.432;2023-04-15T02:09:01;6.70;;;4.10;;
16115;SDS011;8162;47.104;15.432;2023-04-15T02:12:03;5.50;;;4.30;;
16115;SDS011;8162;47.104;15.432;2023-04-15T02:15:04;3.63;;;3.00;;
16115;SDS011;8162;47.104;15.432;2023-04-15T02:18:05;3.87;;;2.93;;
16115;SDS011;8162;47.104;15.432;2023-04-15T02:21:06;3.43;;;3.00;;
16115;SDS011;8162;47.104;15.432;2023-04-15T02:24:07;3.63;;;3.20;;
16115;SDS011;8162;47.104;15.432;2023-04-15T02:27:08;4.93;;;3.87;;
16115;SDS011;8162;47.104;15.432;2023-04-15T02:30:09;4.00;;;3.37;;
16115;SDS011;8162;47.104;15.432;2023-04-15T02:33:09;5.30;;;3.60;;
16115;SDS011;8162;47.104;15.432;2023-04-15T02:36:10;5.33;;;3.80;;
16115;SDS011;8162;47.104;15.432;2023-04-15T02:39:11;4.33;;;3.63;;
16115;SDS011;8162;47.104;15.432;2023-04-15T02:42:13;5.60;;;3.07;;
16115;SDS011;8162;47.104;15.432;2023-04-15T02:45:14;5.57;;;3.40;;
16115;SDS011;8162;47.104;15.432;2023-04-15T02:48:15;4.07;;;3.13;;
16115;SDS011;8162;47.104;15.432;2023-04-15T02:51:19;3.33;;;2.90;;
16115;SDS011;8162;47.104;15.432;2023-04-15T02:54:21;4.07;;;2.97;;
16115;SDS011;8162;47.104;15.432;2023-04-15T02:57:22;5.67;;;3.17;;
16115;SDS011;8162;47.104;15.432;2023-04-15T03:00:23;3.50;;;3.00;;
16115;SDS011;8162;47.104;15.432;2023-04-15T03:03:24;4.73;;;3.07;;
16115;SDS011;8162;47.104;15.432;2023-04-15T03:06:26;4.53;;;3.10;;
16115;SDS011;8162;47.104;15.432;2023-04-15T03:09:27;4.37;;;3.10;;
16115;SDS011;8162;47.104;15.432;2023-04-15T03:12:28;3.77;;;2.70;;
16115;SDS011;8162;47.104;15.432;2023-04-15T03:15:29;4.53;;;3.20;;
16115;SDS011;8162;47.104;15.432;2023-04-15T03:18:31;6.90;;;3.73;;
16115;SDS011;8162;47.104;15.432;2023-04-15T03:21:32;4.70;;;3.10;;
16115;SDS011;8162;47.104;15.432;2023-04-15T03:24:32;4.03;;;3.30;;
16115;SDS011;8162;47.104;15.432;2023-04-15T03:27:33;6.60;;;3.50;;
16115;SDS011;8162;47.104;15.432;2023-04-15T03:30:34;5.57;;;3.87;;
16115;SDS011;8162;47.104;15.432;2023-04-15T03:33:34;3.00;;;2.70;;
16115;SDS011;8162;47.104;15.432;2023-04-15T03:36:35;8.00;;;3.80;;
16115;SDS011;8162;47.104;15.432;2023-04-15T03:39:36;7.00;;;3.70;;
16115;SDS011;8162;47.104;15.432;2023-04-15T03:42:37;2.70;;;2.50;;
16115;SDS011;8162;47.104;15.432;2023-04-15T03:45:37;4.73;;;3.53;;
16115;SDS011;8162;47.104;15.432;2023-04-15T03:48:38;3.47;;;2.83;;
16115;SDS011;8162;47.104;15.432;2023-04-15T03:51:39;5.93;;;4.13;;
16115;SDS011;8162;47.104;15.432;2023-04-15T03:54:39;5.27;;;3.53;;
16115;SDS011;8162;47.104;15.432;2023-04-15T03:57:40;5.20;;;3.27;;
16115;SDS011;8162;47.104;15.432;2023-04-15T04:00:41;5.17;;;3.47;;
16115;SDS011;8162;47.104;15.432;2023-04-15T04:03:42;3.70;;;3.00;;
16115;SDS011;8162;47.104;15.432;2023-04-15T04:06:42;4.17;;;3.23;;
16115;SDS011;8162;47.104;15.432;2023-04-15T04:09:43;3.73;;;2.90;;
16115;SDS011;8162;47.104;15.432;2023-04-15T04:12:44;4.77;;;3.60;;
16115;SDS011;8162;47.104;15.432;2023-04-15T04:15:44;3.60;;;3.17;;
16115;SDS011;8162;47.104;15.432;2023-04-15T04:18:45;2.63;;;2.43;;
16115;SDS011;8162;47.104;15.432;2023-04-15T04:21:46;3.00;;;2.60;;
16115;SDS011;8162;47.104;15.432;2023-04-15T04:24:46;2.90;;;2.60;;
16115;SDS011;8162;47.104;15.432;2023-04-15T04:27:47;5.23;;;3.97;;
16115;SDS011;8162;47.104;15.432;2023-04-15T04:30:47;5.30;;;3.77;;
16115;SDS011;8162;47.104;15.432;2023-04-15T04:33:49;9.10;;;5.50;;
16115;SDS011;8162;47.104;15.432;2023-04-15T04:36:50;5.50;;;4.50;;
16115;SDS011;8162;47.104;15.432;2023-04-15T04:39:50;5.60;;;4.00;;
16115;SDS011;8162;47.104;15.432;2023-04-15T04:42:52;10.10;;;6.10;;
16115;SDS011;8162;47.104;15.432;2023-04-15T04:45:53;6.07;;;4.80;;
16115;SDS011;8162;47.104;15.432;2023-04-15T04:48:53;9.33;;;5.60;;
16115;SDS011;8162;47.104;15.432;2023-04-15T04:51:54;5.80;;;4.53;;
16115;SDS011;8162;47.104;15.432;2023-04-15T04:54:56;5.90;;;4.13;;
16115;SDS011;8162;47.104;15.432;2023-04-15T04:57:57;7.13;;;4.93;;
16115;SDS011;8162;47.104;15.432;2023-04-15T05:00:57;8.03;;;5.47;;
16115;SDS011;8162;47.104;15.432;2023-04-15T05:03:58;5.47;;;4.77;;
16115;SDS011;8162;47.104;15.432;2023-04-15T05:06:59;5.60;;;5.07;;
16115;SDS011;8162;47.104;15.432;2023-04-15T05:10:00;7.67;;;5.33;;
16115;SDS011;8162;47.104;15.432;2023-04-15T05:13:00;6.83;;;5.33;;
16115;SDS011;8162;47.104;15.432;2023-04-15T05:16:01;8.57;;;5.33;;
16115;SDS011;8162;47.104;15.432;2023-04-15T05:19:02;10.47;;;6.87;;
16115;SDS011;8162;47.104;15.432;2023-04-15T05:22:02;10.27;;;6.20;;
16115;SDS011;8162;47.104;15.432;2023-04-15T05:25:03;6.17;;;4.93;;
16115;SDS011;8162;47.104;15.432;2023-04-15T05:28:04;8.60;;;5.93;;
16115;SDS011;8162;47.104;15.432;2023-04-15T05:31:05;6.90;;;5.57;;
16115;SDS011;8162;47.104;15.432;2023-04-15T05:34:06;7.27;;;5.40;;
16115;SDS011;8162;47.104;15.432;2023-04-15T05:37:07;9.03;;;6.13;;
16115;SDS011;8162;47.104;15.432;2023-04-15T05:40:07;5.40;;;4.63;;
16115;SDS011;8162;47.104;15.432;2023-04-15T05:43:09;6.03;;;5.27;;
16115;SDS011;8162;47.104;15.432;2023-04-15T05:46:10;8.37;;;5.93;;
16115;SDS011;8162;47.104;15.432;2023-04-15T05:49:11;5.07;;;4.57;;
16115;SDS011;8162;47.104;15.432;2023-04-15T05:52:12;8.57;;;6.00;;
16115;SDS011;8162;47.104;15.432;2023-04-15T05:55:12;6.07;;;4.77;;
16115;SDS011;8162;47.104;15.432;2023-04-15T05:58:13;9.93;;;6.43;;
16115;SDS011;8162;47.104;15.432;2023-04-15T06:01:14;7.87;;;5.27;;
16115;SDS011;8162;47.104;15.432;2023-04-15T06:04:15;7.50;;;5.23;;
16115;SDS011;8162;47.104;15.432;2023-04-15T06:07:16;9.37;;;6.70;;
16115;SDS011;8162;47.104;15.432;2023-04-15T06:10:17;9.80;;;6.83;;
16115;SDS011;8162;47.104;15.432;2023-04-15T06:13:17;8.13;;;6.40;;
16115;SDS011;8162;47.104;15.432;2023-04-15T06:16:18;8.40;;;7.07;;
16115;SDS011;8162;47.104;15.432;2023-04-15T06:19:19;8.93;;;6.63;;
16115;SDS011;8162;47.104;15.432;2023-04-15T06:22:20;6.17;;;5.30;;
16115;SDS011;8162;47.104;15.432;2023-04-15T06:25:22;8.83;;;7.93;;
16115;SDS011;8162;47.104;15.432;2023-04-15T06:28:23;12.70;;;9.60;;
16115;SDS011;8162;47.104;15.432;2023-04-15T06:31:23;9.07;;;7.77;;
16115;SDS011;8162;47.104;15.432;2023-04-15T06:34:24;10.93;;;8.67;;
16115;SDS011;8162;47.104;15.432;2023-04-15T06:37:25;9.70;;;7.23;;
16115;SDS011;8162;47.104;15.432;2023-04-15T06:40:26;8.93;;;6.70;;
16115;SDS011;8162;47.104;15.432;2023-04-15T06:43:27;10.43;;;6.80;;
16115;SDS011;8162;47.104;15.432;2023-04-15T06:46:27;8.93;;;7.10;;
16115;SDS011;8162;47.104;15.432;2023-04-15T06:49:28;10.10;;;8.10;;
16115;SDS011;8162;47.104;15.432;2023-04-15T06:52:29;9.97;;;6.90;;
16115;SDS011;8162;47.104;15.432;2023-04-15T06:55:30;8.80;;;7.70;;
16115;SDS011;8162;47.104;15.432;2023-04-15T06:58:32;10.47;;;8.00;;
16115;SDS011;8162;47.104;15.432;2023-04-15T07:01:33;11.30;;;8.83;;
16115;SDS011;8162;47.104;15.432;2023-04-15T07:04:34;11.90;;;9.77;;
16115;SDS011;8162;47.104;15.432;2023-04-15T07:07:34;11.17;;;8.63;;
16115;SDS011;8162;47.104;15.432;2023-04-15T07:10:35;13.10;;;8.77;;
16115;SDS011;8162;47.104;15.432;2023-04-15T07:13:37;12.07;;;8.90;;
16115;SDS011;8162;47.104;15.432;2023-04-15T07:16:37;11.27;;;7.93;;
16115;SDS011;8162;47.104;15.432;2023-04-15T07:19:38;9.90;;;7.67;;
16115;SDS011;8162;47.104;15.432;2023-04-15T07:22:38;11.37;;;7.97;;
16115;SDS011;8162;47.104;15.432;2023-04-15T07:25:39;8.43;;;6.67;;
16115;SDS011;8162;47.104;15.432;2023-04-15T07:28:40;9.03;;;7.00;;
16115;SDS011;8162;47.104;15.432;2023-04-15T07:31:41;10.77;;;8.10;;
16115;SDS011;8162;47.104;15.432;2023-04-15T07:34:42;8.93;;;7.73;;
16115;SDS011;8162;47.104;15.432;2023-04-15T07:37:43;8.37;;;6.90;;
16115;SDS011;8162;47.104;15.432;2023-04-15T07:40:44;11.17;;;8.00;;
16115;SDS011;8162;47.104;15.432;2023-04-15T07:43:45;9.13;;;6.60;;
16115;SDS011;8162;47.104;15.432;2023-04-15T07:46:47;12.13;;;8.67;;
16115;SDS011;8162;47.104;15.432;2023-04-15T07:49:48;12.57;;;10.00;;
16115;SDS011;8162;47.104;15.432;2023-04-15T07:52:50;9.43;;;8.40;;
16115;SDS011;8162;47.104;15.432;2023-04-15T07:55:51;10.77;;;7.83;;
16115;SDS011;8162;47.104;15.432;2023-04-15T07:58:52;7.50;;;6.77;;
16115;SDS011;8162;47.104;15.432;2023-04-15T08:01:52;8.20;;;7.40;;
16115;SDS011;8162;47.104;15.432;2023-04-15T08:04:53;9.93;;;8.40;;
16115;SDS011;8162;47.104;15.432;2023-04-15T08:07:54;10.37;;;8.40;;
16115;SDS011;8162;47.104;15.432;2023-04-15T08:10:55;7.23;;;6.53;;
16115;SDS011;8162;47.104;15.432;2023-04-15T08:13:57;8.53;;;7.60;;
16115;SDS011;8162;47.104;15.432;2023-04-15T08:16:59;10.80;;;8.13;;
16115;SDS011;8162;47.104;15.432;2023-04-15T08:20:00;7.87;;;7.07;;
16115;SDS011;8162;47.104;15.432;2023-04-15T08:23:01;7.80;;;7.00;;
16115;SDS011;8162;47.104;15.432;2023-04-15T08:26:02;6.73;;;6.03;;
16115;SDS011;8162;47.104;15.432;2023-04-15T08:29:02;7.43;;;6.63;;
16115;SDS011;8162;47.104;15.432;2023-04-15T08:32:03;6.70;;;6.10;;
16115;SDS011;8162;47.104;15.432;2023-04-15T08:35:05;6.97;;;6.27;;
16115;SDS011;8162;47.104;15.432;2023-04-15T08:38:06;5.97;;;5.37;;
16115;SDS011;8162;47.104;15.432;2023-04-15T08:41:23;4.90;;;4.17;;
16115;SDS011;8162;47.104;15.432;2023-04-15T08:44:24;4.67;;;4.03;;
16115;SDS011;8162;47.104;15.432;2023-04-15T08:47:29;5.23;;;4.37;;
16115;SDS011;8162;47.104;15.432;2023-04-15T08:50:33;6.37;;;5.50;;
16115;SDS011;8162;47.104;15.432;2023-04-15T08:53:34;5.47;;;4.77;;
16115;SDS011;8162;47.104;15.432;2023-04-15T08:56:37;5.80;;;5.30;;
16115;SDS011;8162;47.104;15.432;2023-04-15T08:59:38;4.27;;;3.97;;
16115;SDS011;8162;47.104;15.432;2023-04-15T09:02:39;4.53;;;4.13;;
16115;SDS011;8162;47.104;15.432;2023-04-15T09:05:40;5.43;;;4.70;;
16115;SDS011;8162;47.104;15.432;2023-04-15T09:08:41;4.33;;;4.03;;
16115;SDS011;8162;47.104;15.432;2023-04-15T09:11:42;4.40;;;4.10;;
16115;SDS011;8162;47.104;15.432;2023-04-15T09:14:44;4.63;;;4.23;;
16115;SDS011;8162;47.104;15.432;2023-04-15T09:17:46;4.97;;;4.47;;
16115;SDS011;8162;47.104;15.432;2023-04-15T09:20:47;4.37;;;3.97;;
16115;SDS011;8162;47.104;15.432;2023-04-15T09:23:56;5.37;;;4.40;;
16115;SDS011;8162;47.104;15.432;2023-04-15T09:26:58;5.57;;;5.10;;
16115;SDS011;8162;47.104;15.432;2023-04-15T09:29:59;5.80;;;5.07;;
16115;SDS011;8162;47.104;15.432;2023-04-15T09:33:01;4.40;;;4.00;;
16115;SDS011;8162;47.104;15.432;2023-04-15T09:36:04;4.17;;;3.80;;
16115;SDS011;8162;47.104;15.432;2023-04-15T09:39:05;4.70;;;4.30;;
16115;SDS011;8162;47.104;15.432;2023-04-15T09:42:07;3.37;;;3.07;;
16115;SDS011;8162;47.104;15.432;2023-04-15T09:45:09;4.07;;;3.67;;
16115;SDS011;8162;47.104;15.432;2023-04-15T09:48:18;4.03;;;3.60;;
16115;SDS011;8162;47.104;15.432;2023-04-15T09:51:32;3.80;;;3.30;;
16115;SDS011;8162;47.104;15.432;2023-04-15T09:54:36;4.27;;;3.83;;
16115;SDS011;8162;47.104;15.432;2023-04-15T09:57:38;3.87;;;3.43;;
16115;SDS011;8162;47.104;15.432;2023-04-15T10:00:43;4.10;;;3.70;;
16115;SDS011;8162;47.104;15.432;2023-04-15T10:03:46;3.90;;;3.60;;
16115;SDS011;8162;47.104;15.432;2023-04-15T10:06:47;3.73;;;3.30;;
16115;SDS011;8162;47.104;15.432;2023-04-15T10:09:49;2.97;;;2.77;;
16115;SDS011;8162;47.104;15.432;2023-04-15T10:12:50;4.33;;;4.00;;
16115;SDS011;8162;47.104;15.432;2023-04-15T10:16:04;3.90;;;3.60;;
16115;SDS011;8162;47.104;15.432;2023-04-15T10:19:05;3.23;;;2.93;;
16115;SDS011;8162;47.104;15.432;2023-04-15T10:22:08;4.67;;;3.40;;
16115;SDS011;8162;47.104;15.432;2023-04-15T10:25:09;3.27;;;2.97;;
16115;SDS011;8162;47.104;15.432;2023-04-15T10:28:10;3.30;;;3.00;;
16115;SDS011;8162;47.104;15.432;2023-04-15T10:31:12;4.23;;;2.60;;
16115;SDS011;8162;47.104;15.432;2023-04-15T10:34:14;3.40;;;3.10;;
16115;SDS011;8162;47.104;15.432;2023-04-15T10:37:22;3.40;;;3.10;;
16115;SDS011;8162;47.104;15.432;2023-04-15T10:40:24;3.20;;;2.97;;
16115;SDS011;8162;47.104;15.432;2023-04-15T10:43:26;3.97;;;3.57;;
16115;SDS011;8162;47.104;15.432;2023-04-15T10:49:44;3.90;;;3.47;;
16115;SDS011;8162;47.104;15.432;2023-04-15T10:52:49;3.37;;;3.07;;
16115;SDS011;8162;47.104;15.432;2023-04-15T10:55:50;3.60;;;3.30;;
16115;SDS011;8162;47.104;15.432;2023-04-15T10:58:51;3.07;;;2.87;;
16115;SDS011;8162;47.104;15.432;2023-04-15T11:01:53;3.90;;;3.47;;
16115;SDS011;8162;47.104;15.432;2023-04-15T11:04:56;3.97;;;3.13;;
16115;SDS011;8162;47.104;15.432;2023-04-15T11:07:57;3.77;;;3.23;;
16115;SDS011;8162;47.104;15.432;2023-04-15T11:10:58;3.90;;;3.60;;
16115;SDS011;8162;47.104;15.432;2023-04-15T11:14:01;4.30;;;3.90;;
16115;SDS011;8162;47.104;15.432;2023-04-15T11:17:02;4.13;;;3.73;;
16115;SDS011;8162;47.104;15.432;2023-04-15T11:20:04;4.30;;;2.90;;
16115;SDS011;8162;47.104;15.432;2023-04-15T11:23:05;4.00;;;3.50;;
16115;SDS011;8162;47.104;15.432;2023-04-15T11:26:08;2.90;;;2.70;;
16115;SDS011;8162;47.104;15.432;2023-04-15T11:29:16;3.17;;;2.97;;
16115;SDS011;8162;47.104;15.432;2023-04-15T11:32:17;2.93;;;2.73;;
16115;SDS011;8162;47.104;15.432;2023-04-15T11:35:18;3.50;;;3.20;;
16115;SDS011;8162;47.104;15.432;2023-04-15T11:38:19;3.80;;;3.40;;
16115;SDS011;8162;47.104;15.432;2023-04-15T11:41:24;3.63;;;3.33;;
16115;SDS011;8162;47.104;15.432;2023-04-15T11:44:25;3.30;;;2.63;;
16115;SDS011;8162;47.104;15.432;2023-04-15T11:47:26;3.03;;;2.73;;
16115;SDS011;8162;47.104;15.432;2023-04-15T11:50:27;2.93;;;2.70;;
16115;SDS011;8162;47.104;15.432;2023-04-15T11:53:44;3.30;;;2.73;;
16115;SDS011;8162;47.104;15.432;2023-04-15T11:56:51;5.00;;;3.10;;
16115;SDS011;8162;47.104;15.432;2023-04-15T11:59:53;3.50;;;2.57;;
16115;SDS011;8162;47.104;15.432;2023-04-15T12:03:10;3.37;;;3.07;;
16115;SDS011;8162;47.104;15.432;2023-04-15T12:06:12;4.00;;;2.87;;
16115;SDS011;8162;47.104;15.432;2023-04-15T12:09:18;3.63;;;3.33;;
16115;SDS011;8162;47.104;15.432;2023-04-15T12:12:19;3.70;;;3.17;;
16115;SDS011;8162;47.104;15.432;2023-04-15T12:15:21;5.00;;;3.27;;
16115;SDS011;8162;47.104;15.432;2023-04-15T12:18:23;3.77;;;3.47;;
16115;SDS011;8162;47.104;15.432;2023-04-15T12:21:25;3.73;;;3.43;;
16115;SDS011;8162;47.104;15.432;2023-04-15T12:24:26;4.03;;;3.67;;
16115;SDS011;8162;47.104;15.432;2023-04-15T12:27:28;3.30;;;3.00;;
16115;SDS011;8162;47.104;15.432;2023-04-15T12:30:29;3.60;;;3.27;;
16115;SDS011;8162;47.104;15.432;2023-04-15T12:33:33;4.27;;;3.00;;
16115;SDS011;8162;47.104;15.432;2023-04-15T12:36:34;3.43;;;3.13;;
16115;SDS011;8162;47.104;15.432;2023-04-15T12:39:37;3.00;;;2.63;;
16115;SDS011;8162;47.104;15.432;2023-04-15T12:42:38;2.97;;;2.50;;
16115;SDS011;8162;47.104;15.432;2023-04-15T12:45:39;2.80;;;2.50;;
16115;SDS011;8162;47.104;15.432;2023-04-15T12:48:40;3.00;;;2.70;;
16115;SDS011;8162;47.104;15.432;2023-04-15T12:51:42;3.03;;;2.77;;
16115;SDS011;8162;47.104;15.432;2023-04-15T12:54:43;4.13;;;2.73;;
16115;SDS011;8162;47.104;15.432;2023-04-15T12:57:44;2.57;;;2.37;;
16115;SDS011;8162;47.104;15.432;2023-04-15T13:00:46;3.37;;;2.73;;
16115;SDS011;8162;47.104;15.432;2023-04-15T13:03:47;2.57;;;2.37;;
16115;SDS011;8162;47.104;15.432;2023-04-15T13:06:50;2.80;;;2.60;;
16115;SDS011;8162;47.104;15.432;2023-04-15T13:09:51;2.70;;;2.50;;
16115;SDS011;8162;47.104;15.432;2023-04-15T13:12:52;4.47;;;2.37;;
16115;SDS011;8162;47.104;15.432;2023-04-15T13:15:53;2.53;;;2.33;;
16115;SDS011;8162;47.104;15.432;2023-04-15T13:18:57;3.20;;;2.40;;
16115;SDS011;8162;47.104;15.432;2023-04-15T13:21:58;3.50;;;2.70;;
16115;SDS011;8162;47.104;15.432;2023-04-15T13:25:00;2.60;;;2.40;;
16115;SDS011;8162;47.104;15.432;2023-04-15T13:28:01;2.93;;;2.60;;
16115;SDS011;8162;47.104;15.432;2023-04-15T13:31:02;3.27;;;2.97;;
16115;SDS011;8162;47.104;15.432;2023-04-15T13:34:03;3.57;;;3.27;;
16115;SDS011;8162;47.104;15.432;2023-04-15T13:37:07;5.10;;;4.20;;
16115;SDS011;8162;47.104;15.432;2023-04-15T13:40:08;5.53;;;5.03;;
16115;SDS011;8162;47.104;15.432;2023-04-15T13:43:10;6.13;;;4.87;;
16115;SDS011;8162;47.104;15.432;2023-04-15T13:46:11;5.67;;;5.23;;
16115;SDS011;8162;47.104;15.432;2023-04-15T13:49:12;5.43;;;4.90;;
16115;SDS011;8162;47.104;15.432;2023-04-15T13:52:13;4.93;;;4.53;;
16115;SDS011;8162;47.104;15.432;2023-04-15T13:55:14;5.50;;;5.00;;
16115;SDS011;8162;47.104;15.432;2023-04-15T13:58:15;7.23;;;6.20;;
16115;SDS011;8162;47.104;15.432;2023-04-15T14:01:16;6.63;;;6.03;;
16115;SDS011;8162;47.104;15.432;2023-04-15T14:04:17;6.40;;;5.80;;
16115;SDS011;8162;47.104;15.432;2023-04-15T14:07:18;5.90;;;5.07;;
16115;SDS011;8162;47.104;15.432;2023-04-15T14:10:19;5.27;;;4.77;;
16115;SDS011;8162;47.104;15.432;2023-04-15T14:13:20;4.50;;;4.10;;
16115;SDS011;8162;47.104;15.432;2023-04-15T14:16:21;4.73;;;4.33;;
16115;SDS011;8162;47.104;15.432;2023-04-15T14:19:23;4.87;;;4.03;;
16115;SDS011;8162;47.104;15.432;2023-04-15T14:22:24;6.80;;;4.30;;
16115;SDS011;8162;47.104;15.432;2023-04-15T14:25:25;4.43;;;4.03;;
16115;SDS011;8162;47.104;15.432;2023-04-15T14:28:26;4.87;;;4.37;;
16115;SDS011;8162;47.104;15.432;2023-04-15T14:31:27;6.90;;;5.10;;
16115;SDS011;8162;47.104;15.432;2023-04-15T14:34:28;5.33;;;4.83;;
16115;SDS011;8162;47.104;15.432;2023-04-15T14:37:29;5.70;;;4.30;;
16115;SDS011;8162;47.104;15.432;2023-04-15T14:40:32;5.30;;;4.80;;
16115;SDS011;8162;47.104;15.432;2023-04-15T14:43:33;4.13;;;3.73;;
16115;SDS011;8162;47.104;15.432;2023-04-15T14:46:34;4.43;;;3.90;;
16115;SDS011;8162;47.104;15.432;2023-04-15T14:49:35;4.47;;;4.10;;
16115;SDS011;8162;47.104;15.432;2023-04-15T14:52:36;3.77;;;3.47;;
16115;SDS011;8162;47.104;15.432;2023-04-15T14:55:37;4.40;;;4.00;;
16115;SDS011;8162;47.104;15.432;2023-04-15T14:58:39;4.33;;;4.03;;
16115;SDS011;8162;47.104;15.432;2023-04-15T15:01:40;4.30;;;4.00;;
16115;SDS011;8162;47.104;15.432;2023-04-15T15:04:41;5.10;;;4.60;;
16115;SDS011;8162;47.104;15.432;2023-04-15T15:07:42;4.50;;;4.10;;
16115;SDS011;8162;47.104;15.432;2023-04-15T15:10:43;4.30;;;3.90;;
16115;SDS011;8162;47.104;15.432;2023-04-15T15:13:44;5.10;;;4.00;;
16115;SDS011;8162;47.104;15.432;2023-04-15T15:16:45;4.17;;;3.77;;
16115;SDS011;8162;47.104;15.432;2023-04-15T15:19:46;4.20;;;3.63;;
16115;SDS011;8162;47.104;15.432;2023-04-15T15:22:47;6.10;;;4.47;;
16115;SDS011;8162;47.104;15.432;2023-04-15T15:25:48;3.97;;;3.57;;
16115;SDS011;8162;47.104;15.432;2023-04-15T15:28:50;4.73;;;3.60;;
16115;SDS011;8162;47.104;15.432;2023-04-15T15:31:51;3.90;;;3.60;;
16115;SDS011;8162;47.104;15.432;2023-04-15T15:34:52;5.70;;;5.13;;
16115;SDS011;8162;47.104;15.432;2023-04-15T15:37:53;5.87;;;5.27;;
16115;SDS011;8162;47.104;15.432;2023-04-15T15:40:54;5.67;;;5.00;;
16115;SDS011;8162;47.104;15.432;2023-04-15T15:43:55;4.67;;;4.20;;
16115;SDS011;8162;47.104;15.432;2023-04-15T15:46:56;4.97;;;4.30;;
16115;SDS011;8162;47.104;15.432;2023-04-15T15:49:57;4.93;;;4.50;;
16115;SDS011;8162;47.104;15.432;2023-04-15T15:53:00;4.60;;;4.20;;
16115;SDS011;8162;47.104;15.432;2023-04-15T15:56:01;6.00;;;3.40;;
16115;SDS011;8162;47.104;15.432;2023-04-15T15:59:03;3.63;;;3.33;;
16115;SDS011;8162;47.104;15.432;2023-04-15T16:02:04;3.07;;;2.77;;
16115;SDS011;8162;47.104;15.432;2023-04-15T16:05:05;4.17;;;3.10;;
16115;SDS011;8162;47.104;15.432;2023-04-15T16:08:06;3.13;;;2.83;;
16115;SDS011;8162;47.104;15.432;2023-04-15T16:11:07;2.93;;;2.30;;
16115;SDS011;8162;47.104;15.432;2023-04-15T16:14:08;3.73;;;2.43;;
16115;SDS011;8162;47.104;15.432;2023-04-15T16:17:09;3.50;;;2.40;;
16115;SDS011;8162;47.104;15.432;2023-04-15T16:20:10;3.47;;;2.27;;
16115;SDS011;8162;47.104;15.432;2023-04-15T16:23:12;2.73;;;2.53;;
16115;SDS011;8162;47.104;15.432;2023-04-15T16:26:14;2.63;;;2.43;;
16115;SDS011;8162;47.104;15.432;2023-04-15T16:29:15;3.47;;;3.17;;
16115;SDS011;8162;47.104;15.432;2023-04-15T16:32:16;4.30;;;3.07;;
16115;SDS011;8162;47.104;15.432;2023-04-15T16:35:17;3.90;;;2.90;;
16115;SDS011;8162;47.104;15.432;2023-04-15T16:38:19;4.43;;;3.47;;
16115;SDS011;8162;47.104;15.432;2023-04-15T16:41:20;4.20;;;3.07;;
16115;SDS011;8162;47.104;15.432;2023-04-15T16:44:21;4.00;;;3.70;;
16115;SDS011;8162;47.104;15.432;2023-04-15T16:47:22;4.63;;;3.47;;
16115;SDS011;8162;47.104;15.432;2023-04-15T16:50:23;4.07;;;3.77;;
16115;SDS011;8162;47.104;15.432;2023-04-15T16:53:24;4.00;;;3.60;;
16115;SDS011;8162;47.104;15.432;2023-04-15T16:56:25;4.30;;;3.40;;
16115;SDS011;8162;47.104;15.432;2023-04-15T16:59:26;3.70;;;3.40;;
16115;SDS011;8162;47.104;15.432;2023-04-15T17:02:28;4.83;;;3.53;;
16115;SDS011;8162;47.104;15.432;2023-04-15T17:05:29;3.47;;;3.17;;
16115;SDS011;8162;47.104;15.432;2023-04-15T17:08:30;3.30;;;3.00;;
16115;SDS011;8162;47.104;15.432;2023-04-15T17:11:31;4.80;;;2.97;;
16115;SDS011;8162;47.104;15.432;2023-04-15T17:14:34;2.80;;;2.40;;
16115;SDS011;8162;47.104;15.432;2023-04-15T17:17:35;2.60;;;2.40;;
16115;SDS011;8162;47.104;15.432;2023-04-15T17:20:37;3.17;;;2.70;;
16115;SDS011;8162;47.104;15.432;2023-04-15T17:23:38;5.93;;;2.80;;
16115;SDS011;8162;47.104;15.432;2023-04-15T17:26:39;2.80;;;2.50;;
16115;SDS011;8162;47.104;15.432;2023-04-15T17:29:41;2.43;;;2.23;;
16115;SDS011;8162;47.104;15.432;2023-04-15T17:32:41;2.57;;;2.07;;
16115;SDS011;8162;47.104;15.432;2023-04-15T17:35:44;3.70;;;2.50;;
16115;SDS011;8162;47.104;15.432;2023-04-15T17:38:45;2.70;;;2.37;;
16115;SDS011;8162;47.104;15.432;2023-04-15T17:41:47;2.60;;;2.20;;
16115;SDS011;8162;47.104;15.432;2023-04-15T17:44:48;2.47;;;2.27;;
16115;SDS011;8162;47.104;15.432;2023-04-15T17:47:49;2.40;;;2.20;;
16115;SDS011;8162;47.104;15.432;2023-04-15T17:50:50;3.33;;;2.10;;
16115;SDS011;8162;47.104;15.432;2023-04-15T17:53:53;1.87;;;1.70;;
16115;SDS011;8162;47.104;15.432;2023-04-15T17:56:54;2.17;;;1.80;;
16115;SDS011;8162;47.104;15.432;2023-04-15T17:59:55;2.80;;;2.10;;
16115;SDS011;8162;47.104;15.432;2023-04-15T18:02:56;2.07;;;1.87;;
16115;SDS011;8162;47.104;15.432;2023-04-15T18:05:57;2.90;;;2.03;;
16115;SDS011;8162;47.104;15.432;2023-04-15T18:09:00;3.50;;;2.70;;
16115;SDS011;8162;47.104;15.432;2023-04-15T18:12:02;3.67;;;3.10;;
16115;SDS011;8162;47.104;15.432;2023-04-15T18:15:03;3.10;;;2.80;;